sensor_id;sensor_type;location;lat;lon;timestamp;temperature;humidity
23769;DHT22;12064;50.890;5.424;2024-01-25T00:05:09;16.40;97.40
23769;DHT22;12064;50.890;5.424;2024-01-25T00:14:01;16.40;97.50
23769;DHT22;12064;50.890;5.424;2024-01-25T00:22:52;16.40;97.50
23769;DHT22;12064;50.890;5.424;2024-01-25T00:31:43;16.40;97.60
23769;DHT22;12064;50.890;5.424;2024-01-25T00:40:33;16.40;97.50
23769;DHT22;12064;50.890;5.424;2024-01-25T00:49:25;16.30;97.60
23769;DHT22;12064;50.890;5.424;2024-01-25T00:58:16;16.40;97.70
23769;DHT22;12064;50.890;5.424;2024-01-25T01:07:07;16.30;97.80
23769;DHT22;12064;50.890;5.424;2024-01-25T01:15:58;16.30;97.80
23769;DHT22;12064;50.890;5.424;2024-01-25T01:24:49;16.30;97.80
23769;DHT22;12064;50.890;5.424;2024-01-25T01:33:40;16.30;98.20
23769;DHT22;12064;50.890;5.424;2024-01-25T01:42:31;16.30;97.80
23769;DHT22;12064;50.890;5.424;2024-01-25T01:51:23;16.30;97.90
23769;DHT22;12064;50.890;5.424;2024-01-25T02:00:15;16.30;97.90
23769;DHT22;12064;50.890;5.424;2024-01-25T02:09:09;16.20;97.90
23769;DHT22;12064;50.890;5.424;2024-01-25T02:18:02;16.30;97.90
23769;DHT22;12064;50.890;5.424;2024-01-25T02:26:53;16.30;98.00
23769;DHT22;12064;50.890;5.424;2024-01-25T02:35:44;16.20;98.00
23769;DHT22;12064;50.890;5.424;2024-01-25T02:44:34;16.20;98.10
23769;DHT22;12064;50.890;5.424;2024-01-25T02:53:25;16.20;98.10
23769;DHT22;12064;50.890;5.424;2024-01-25T03:02:15;16.20;98.10
23769;DHT22;12064;50.890;5.424;2024-01-25T03:11:09;16.10;98.10
23769;DHT22;12064;50.890;5.424;2024-01-25T03:20:00;16.10;98.20
23769;DHT22;12064;50.890;5.424;2024-01-25T03:28:50;16.10;98.20
23769;DHT22;12064;50.890;5.424;2024-01-25T03:37:41;16.10;98.20
23769;DHT22;12064;50.890;5.424;2024-01-25T03:46:32;16.10;98.30
23769;DHT22;12064;50.890;5.424;2024-01-25T03:55:22;16.00;98.30
23769;DHT22;12064;50.890;5.424;2024-01-25T04:04:13;16.00;98.40
23769;DHT22;12064;50.890;5.424;2024-01-25T04:13:05;16.00;98.40
23769;DHT22;12064;50.890;5.424;2024-01-25T04:21:57;16.00;98.50
23769;DHT22;12064;50.890;5.424;2024-01-25T04:30:48;16.00;98.40
23769;DHT22;12064;50.890;5.424;2024-01-25T04:39:39;15.90;98.50
23769;DHT22;12064;50.890;5.424;2024-01-25T04:48:30;16.00;98.50
23769;DHT22;12064;50.890;5.424;2024-01-25T04:57:23;16.00;98.70
23769;DHT22;12064;50.890;5.424;2024-01-25T05:06:13;16.00;98.80
23769;DHT22;12064;50.890;5.424;2024-01-25T05:15:04;16.00;99.00
23769;DHT22;12064;50.890;5.424;2024-01-25T05:23:55;16.00;99.10
23769;DHT22;12064;50.890;5.424;2024-01-25T05:32:46;15.90;99.10
23769;DHT22;12064;50.890;5.424;2024-01-25T05:41:39;15.90;99.20
23769;DHT22;12064;50.890;5.424;2024-01-25T05:50:30;15.90;99.30
23769;DHT22;12064;50.890;5.424;2024-01-25T05:59:20;15.90;99.40
23769;DHT22;12064;50.890;5.424;2024-01-25T06:08:11;15.90;99.40
23769;DHT22;12064;50.890;5.424;2024-01-25T06:17:02;15.90;99.40
23769;DHT22;12064;50.890;5.424;2024-01-25T06:25:53;15.90;99.40
23769;DHT22;12064;50.890;5.424;2024-01-25T06:34:44;15.90;99.40
23769;DHT22;12064;50.890;5.424;2024-01-25T06:43:34;15.90;99.50
23769;DHT22;12064;50.890;5.424;2024-01-25T06:52:26;15.80;99.60
23769;DHT22;12064;50.890;5.424;2024-01-25T07:01:23;15.80;99.60
23769;DHT22;12064;50.890;5.424;2024-01-25T07:10:14;15.90;99.50
23769;DHT22;12064;50.890;5.424;2024-01-25T07:19:05;15.80;99.60
23769;DHT22;12064;50.890;5.424;2024-01-25T07:27:55;15.80;99.70
23769;DHT22;12064;50.890;5.424;2024-01-25T07:36:46;15.80;99.80
23769;DHT22;12064;50.890;5.424;2024-01-25T07:45:37;15.80;99.70
23769;DHT22;12064;50.890;5.424;2024-01-25T07:54:30;15.80;99.80
23769;DHT22;12064;50.890;5.424;2024-01-25T08:03:21;15.80;99.60
23769;DHT22;12064;50.890;5.424;2024-01-25T08:12:11;15.70;98.50
23769;DHT22;12064;50.890;5.424;2024-01-25T08:21:02;15.70;97.70
23769;DHT22;12064;50.890;5.424;2024-01-25T08:29:53;15.60;97.20
23769;DHT22;12064;50.890;5.424;2024-01-25T08:38:43;15.70;97.10
23769;DHT22;12064;50.890;5.424;2024-01-25T08:47:37;15.70;96.90
23769;DHT22;12064;50.890;5.424;2024-01-25T08:56:28;15.60;96.70
23769;DHT22;12064;50.890;5.424;2024-01-25T09:05:19;15.60;96.50
23769;DHT22;12064;50.890;5.424;2024-01-25T09:14:09;15.60;96.40
23769;DHT22;12064;50.890;5.424;2024-01-25T09:23:00;15.60;96.40
23769;DHT22;12064;50.890;5.424;2024-01-25T09:31:50;15.70;96.50
23769;DHT22;12064;50.890;5.424;2024-01-25T09:40:41;15.70;96.60
23769;DHT22;12064;50.890;5.424;2024-01-25T09:49:32;15.70;96.90
23769;DHT22;12064;50.890;5.424;2024-01-25T09:58:25;15.70;97.00
23769;DHT22;12064;50.890;5.424;2024-01-25T10:07:16;15.70;97.10
23769;DHT22;12064;50.890;5.424;2024-01-25T10:16:07;15.70;97.20
23769;DHT22;12064;50.890;5.424;2024-01-25T10:24:57;15.70;97.20
23769;DHT22;12064;50.890;5.424;2024-01-25T10:33:52;15.70;97.50
23769;DHT22;12064;50.890;5.424;2024-01-25T10:42:47;15.80;97.10
23769;DHT22;12064;50.890;5.424;2024-01-25T10:51:38;15.70;97.10
23769;DHT22;12064;50.890;5.424;2024-01-25T11:00:31;15.80;97.20
23769;DHT22;12064;50.890;5.424;2024-01-25T11:09:24;15.70;97.10
23769;DHT22;12064;50.890;5.424;2024-01-25T11:18:16;15.80;97.20
23769;DHT22;12064;50.890;5.424;2024-01-25T11:27:09;15.80;97.10
23769;DHT22;12064;50.890;5.424;2024-01-25T11:36:01;15.80;97.20
23769;DHT22;12064;50.890;5.424;2024-01-25T11:44:51;15.80;97.10
23769;DHT22;12064;50.890;5.424;2024-01-25T11:53:42;15.90;97.10
23769;DHT22;12064;50.890;5.424;2024-01-25T12:02:33;15.90;97.00
23769;DHT22;12064;50.890;5.424;2024-01-25T12:11:24;15.90;97.10
23769;DHT22;12064;50.890;5.424;2024-01-25T12:20:16;15.90;97.20
23769;DHT22;12064;50.890;5.424;2024-01-25T12:29:07;15.90;97.10
23769;DHT22;12064;50.890;5.424;2024-01-25T12:37:58;15.90;97.10
23769;DHT22;12064;50.890;5.424;2024-01-25T12:46:49;16.00;97.20
23769;DHT22;12064;50.890;5.424;2024-01-25T12:55:41;16.00;97.20
23769;DHT22;12064;50.890;5.424;2024-01-25T13:04:31;16.00;97.00
23769;DHT22;12064;50.890;5.424;2024-01-25T13:13:22;16.00;97.20
23769;DHT22;12064;50.890;5.424;2024-01-25T13:22:13;16.00;97.40
23769;DHT22;12064;50.890;5.424;2024-01-25T13:31:04;16.10;97.30
23769;DHT22;12064;50.890;5.424;2024-01-25T13:39:55;16.10;97.30
23769;DHT22;12064;50.890;5.424;2024-01-25T13:48:45;16.10;97.30
23769;DHT22;12064;50.890;5.424;2024-01-25T13:57:36;16.10;97.40
23769;DHT22;12064;50.890;5.424;2024-01-25T14:06:26;16.10;97.40
23769;DHT22;12064;50.890;5.424;2024-01-25T14:15:17;16.10;97.40
23769;DHT22;12064;50.890;5.424;2024-01-25T14:24:08;16.10;97.40
23769;DHT22;12064;50.890;5.424;2024-01-25T14:32:59;16.10;97.40
23769;DHT22;12064;50.890;5.424;2024-01-25T14:41:49;16.10;97.40
23769;DHT22;12064;50.890;5.424;2024-01-25T14:50:40;16.10;97.40
23769;DHT22;12064;50.890;5.424;2024-01-25T14:59:30;16.20;97.40
23769;DHT22;12064;50.890;5.424;2024-01-25T15:08:21;16.20;97.50
23769;DHT22;12064;50.890;5.424;2024-01-25T15:17:12;16.20;97.50
23769;DHT22;12064;50.890;5.424;2024-01-25T15:26:03;16.20;97.60
23769;DHT22;12064;50.890;5.424;2024-01-25T15:34:55;16.20;97.60
23769;DHT22;12064;50.890;5.424;2024-01-25T15:43:45;16.20;97.80
23769;DHT22;12064;50.890;5.424;2024-01-25T15:52:39;16.20;97.80
23769;DHT22;12064;50.890;5.424;2024-01-25T16:01:30;16.20;97.70
23769;DHT22;12064;50.890;5.424;2024-01-25T16:10:20;16.20;98.00
23769;DHT22;12064;50.890;5.424;2024-01-25T16:19:11;16.20;98.20
23769;DHT22;12064;50.890;5.424;2024-01-25T16:28:02;16.20;98.20
23769;DHT22;12064;50.890;5.424;2024-01-25T16:36:53;16.20;98.10
23769;DHT22;12064;50.890;5.424;2024-01-25T16:45:46;16.30;98.20
23769;DHT22;12064;50.890;5.424;2024-01-25T16:54:37;16.20;98.20
23769;DHT22;12064;50.890;5.424;2024-01-25T17:03:28;16.20;98.40
23769;DHT22;12064;50.890;5.424;2024-01-25T17:12:19;16.30;98.20
23769;DHT22;12064;50.890;5.424;2024-01-25T17:21:10;16.20;98.30
23769;DHT22;12064;50.890;5.424;2024-01-25T17:30:01;16.20;98.20
23769;DHT22;12064;50.890;5.424;2024-01-25T17:38:52;16.30;98.30
23769;DHT22;12064;50.890;5.424;2024-01-25T17:47:43;16.20;98.10
23769;DHT22;12064;50.890;5.424;2024-01-25T17:56:37;16.30;97.90
23769;DHT22;12064;50.890;5.424;2024-01-25T18:05:28;16.30;98.10
23769;DHT22;12064;50.890;5.424;2024-01-25T18:14:19;16.20;98.20
23769;DHT22;12064;50.890;5.424;2024-01-25T18:23:10;16.30;98.30
23769;DHT22;12064;50.890;5.424;2024-01-25T18:32:00;16.30;98.40
23769;DHT22;12064;50.890;5.424;2024-01-25T18:40:51;16.30;98.40
23769;DHT22;12064;50.890;5.424;2024-01-25T18:49:42;16.30;98.40
23769;DHT22;12064;50.890;5.424;2024-01-25T18:58:33;16.30;98.40
23769;DHT22;12064;50.890;5.424;2024-01-25T19:07:24;16.30;98.50
23769;DHT22;12064;50.890;5.424;2024-01-25T19:16:14;16.30;98.40
23769;DHT22;12064;50.890;5.424;2024-01-25T19:25:07;16.30;98.50
23769;DHT22;12064;50.890;5.424;2024-01-25T19:33:57;16.30;98.60
23769;DHT22;12064;50.890;5.424;2024-01-25T19:42:50;16.30;98.60
23769;DHT22;12064;50.890;5.424;2024-01-25T19:51:43;16.30;98.60
23769;DHT22;12064;50.890;5.424;2024-01-25T20:00:34;16.30;98.60
23769;DHT22;12064;50.890;5.424;2024-01-25T20:09:25;16.30;98.60
23769;DHT22;12064;50.890;5.424;2024-01-25T20:18:16;16.30;98.60
23769;DHT22;12064;50.890;5.424;2024-01-25T20:27:06;16.40;98.70
23769;DHT22;12064;50.890;5.424;2024-01-25T20:35:57;16.30;98.60
23769;DHT22;12064;50.890;5.424;2024-01-25T20:44:47;16.40;98.70
23769;DHT22;12064;50.890;5.424;2024-01-25T20:53:38;16.30;98.70
23769;DHT22;12064;50.890;5.424;2024-01-25T21:02:29;16.30;98.80
23769;DHT22;12064;50.890;5.424;2024-01-25T21:11:20;16.30;98.80
23769;DHT22;12064;50.890;5.424;2024-01-25T21:20:11;16.40;98.90
23769;DHT22;12064;50.890;5.424;2024-01-25T21:29:01;16.40;99.00
23769;DHT22;12064;50.890;5.424;2024-01-25T21:37:53;16.40;99.80
23769;DHT22;12064;50.890;5.424;2024-01-25T21:46:44;16.40;99.70
23769;DHT22;12064;50.890;5.424;2024-01-25T21:55:34;16.40;99.90
23769;DHT22;12064;50.890;5.424;2024-01-25T22:04:25;16.40;99.70
23769;DHT22;12064;50.890;5.424;2024-01-25T22:13:16;16.40;99.70
23769;DHT22;12064;50.890;5.424;2024-01-25T22:22:07;16.40;99.60
23769;DHT22;12064;50.890;5.424;2024-01-25T22:30:58;16.40;99.60
23769;DHT22;12064;50.890;5.424;2024-01-25T22:39:48;16.50;99.70
23769;DHT22;12064;50.890;5.424;2024-01-25T22:48:39;16.40;99.70
23769;DHT22;12064;50.890;5.424;2024-01-25T22:57:30;16.40;99.60
23769;DHT22;12064;50.890;5.424;2024-01-25T23:06:20;16.40;99.70
23769;DHT22;12064;50.890;5.424;2024-01-25T23:15:11;16.40;99.70
23769;DHT22;12064;50.890;5.424;2024-01-25T23:24:02;16.40;99.60
23769;DHT22;12064;50.890;5.424;2024-01-25T23:32:53;16.40;99.70
23769;DHT22;12064;50.890;5.424;2024-01-25T23:41:43;16.40;99.70
23769;DHT22;12064;50.890;5.424;2024-01-25T23:50:34;16.50;99.60
23769;DHT22;12064;50.890;5.424;2024-01-25T23:59:25;16.40;99.60
